createdAt,value
2017-10-14T00:01:12.000Z,59.10
2017-10-14T00:03:39.526Z,59.20
2017-10-14T00:06:07.022Z,59.10
2017-10-14T00:08:34.545Z,59.10
2017-10-14T00:11:02.046Z,59.10
2017-10-14T00:13:29.578Z,59.10
2017-10-14T00:15:57.089Z,59.10
2017-10-14T00:18:25.409Z,59.10
2017-10-14T00:20:52.906Z,59.00
2017-10-14T00:23:20.428Z,59.10
2017-10-14T00:25:47.939Z,59.10
2017-10-14T00:28:16.231Z,59.20
2017-10-14T00:30:44.505Z,59.20
2017-10-14T00:33:12.789Z,59.20
2017-10-14T00:35:40.292Z,59.10
2017-10-14T00:38:07.830Z,59.00
2017-10-14T00:40:35.334Z,59.00
2017-10-14T00:43:02.832Z,59.10
2017-10-14T00:45:30.354Z,59.00
2017-10-14T00:47:58.631Z,59.00
2017-10-14T00:50:26.175Z,58.90
2017-10-14T00:52:53.685Z,59.00
2017-10-14T00:55:21.203Z,58.90
2017-10-14T00:57:48.704Z,58.90
2017-10-14T01:00:16.223Z,58.90
2017-10-14T01:02:43.718Z,58.90
2017-10-14T01:05:11.232Z,59.00
2017-10-14T01:07:38.731Z,59.10
2017-10-14T01:10:06.337Z,59.00
2017-10-14T01:12:33.843Z,59.00
2017-10-14T01:15:01.368Z,59.00
2017-10-14T01:17:28.889Z,59.10
2017-10-14T01:19:56.398Z,59.00
2017-10-14T01:22:23.903Z,59.00
2017-10-14T01:24:51.421Z,59.00
2017-10-14T01:27:18.918Z,59.00
2017-10-14T01:29:46.433Z,59.40
2017-10-14T01:32:13.939Z,59.00
2017-10-14T01:34:41.487Z,58.90
2017-10-14T01:37:08.988Z,58.90
2017-10-14T01:39:36.496Z,58.90
2017-10-14T01:42:04.784Z,59.00
2017-10-14T01:44:32.287Z,59.00
2017-10-14T01:46:59.802Z,59.20
2017-10-14T01:49:27.302Z,59.10
2017-10-14T01:51:54.822Z,59.10
2017-10-14T01:54:22.327Z,59.10
2017-10-14T01:56:49.852Z,59.20
2017-10-14T01:59:17.355Z,59.10
2017-10-14T02:01:44.871Z,59.00
2017-10-14T02:04:12.371Z,59.00
2017-10-14T02:06:39.890Z,59.00
2017-10-14T02:09:07.388Z,59.10
2017-10-14T02:11:34.903Z,59.20
2017-10-14T02:14:02.408Z,59.30
2017-10-14T02:16:29.931Z,59.30
2017-10-14T02:18:57.431Z,59.40
2017-10-14T02:21:24.946Z,59.30
2017-10-14T02:23:52.446Z,59.30
2017-10-14T02:26:19.987Z,59.20
2017-10-14T02:28:47.502Z,59.30
2017-10-14T02:31:15.019Z,59.90
2017-10-14T02:33:42.522Z,59.30
2017-10-14T02:36:10.071Z,59.30
2017-10-14T02:38:37.571Z,59.30
2017-10-14T02:41:05.073Z,59.30
2017-10-14T02:43:33.359Z,59.30
2017-10-14T02:46:01.678Z,59.30
2017-10-14T02:48:29.242Z,59.20
2017-10-14T02:50:56.746Z,59.30
2017-10-14T02:53:25.039Z,59.40
2017-10-14T02:55:53.306Z,59.30
2017-10-14T02:58:21.582Z,59.30
2017-10-14T03:00:49.845Z,59.20
2017-10-14T03:03:17.358Z,59.20
2017-10-14T03:05:44.860Z,59.20
2017-10-14T03:08:12.383Z,59.30
2017-10-14T03:10:39.883Z,59.30
2017-10-14T03:13:07.407Z,59.30
2017-10-14T03:15:34.927Z,59.40
2017-10-14T03:18:02.458Z,59.40
2017-10-14T03:20:29.979Z,59.20
2017-10-14T03:22:57.498Z,59.30
2017-10-14T03:25:25.773Z,59.20
2017-10-14T03:27:54.067Z,59.30
2017-10-14T03:30:21.577Z,59.20
2017-10-14T03:32:49.110Z,59.30
2017-10-14T03:35:16.605Z,59.20
2017-10-14T03:37:44.163Z,59.10
2017-10-14T03:40:11.668Z,59.10
2017-10-14T03:42:39.170Z,59.10
2017-10-14T03:45:06.691Z,59.10
2017-10-14T03:47:34.187Z,59.10
2017-10-14T03:50:01.713Z,59.10
2017-10-14T03:52:29.257Z,59.20
2017-10-14T03:54:57.622Z,59.20
2017-10-14T03:57:25.890Z,59.10
2017-10-14T03:59:53.417Z,59.10
2017-10-14T04:02:20.929Z,59.10
2017-10-14T04:04:48.442Z,59.10
2017-10-14T04:07:15.934Z,59.10
2017-10-14T04:09:43.463Z,59.10
2017-10-14T04:12:11.022Z,59.10
2017-10-14T04:14:38.535Z,59.10
2017-10-14T04:17:06.038Z,59.10
2017-10-14T04:19:33.558Z,59.10
2017-10-14T04:22:01.118Z,59.10
2017-10-14T04:24:28.638Z,59.10
2017-10-14T04:26:56.906Z,59.70
2017-10-14T04:29:24.450Z,59.10
2017-10-14T04:31:51.962Z,59.20
2017-10-14T04:34:19.478Z,59.20
2017-10-14T04:36:46.987Z,59.20
2017-10-14T04:39:14.499Z,59.40
2017-10-14T04:41:42.019Z,59.90
2017-10-14T04:44:09.523Z,59.30
2017-10-14T04:46:37.043Z,59.40
2017-10-14T04:49:04.541Z,60.00
2017-10-14T04:51:32.056Z,59.30
2017-10-14T04:53:59.568Z,59.40
2017-10-14T04:56:27.912Z,59.40
2017-10-14T04:58:55.407Z,59.30
2017-10-14T05:01:22.942Z,59.40
2017-10-14T05:03:50.442Z,59.30
2017-10-14T05:06:18.035Z,59.30
2017-10-14T05:08:45.542Z,59.30
2017-10-14T05:11:13.827Z,59.20
2017-10-14T05:13:42.094Z,59.20
2017-10-14T05:16:10.370Z,59.30
2017-10-14T05:18:38.650Z,59.20
2017-10-14T05:21:06.960Z,59.20
2017-10-14T05:23:34.462Z,59.10
2017-10-14T05:26:01.980Z,59.20
2017-10-14T05:28:29.482Z,59.20
2017-10-14T05:30:56.997Z,59.20
2017-10-14T05:33:24.493Z,59.20
2017-10-14T05:35:52.011Z,59.20
2017-10-14T05:38:19.526Z,59.30
2017-10-14T05:40:47.051Z,59.30
2017-10-14T05:43:14.569Z,59.30
2017-10-14T05:45:42.834Z,59.30
2017-10-14T05:48:11.130Z,59.40
2017-10-14T05:50:38.623Z,59.30
2017-10-14T05:53:06.150Z,59.30
2017-10-14T05:55:33.679Z,59.40
2017-10-14T05:58:01.198Z,59.40
2017-10-14T06:00:29.471Z,59.50
2017-10-14T06:02:56.990Z,59.50
2017-10-14T06:05:25.256Z,59.60
2017-10-14T06:07:53.534Z,59.70
2017-10-14T06:10:21.801Z,59.70
2017-10-14T06:12:49.319Z,59.70
2017-10-14T06:15:16.820Z,59.80
2017-10-14T06:17:44.335Z,59.80
2017-10-14T06:20:11.841Z,59.90
2017-10-14T06:22:39.436Z,60.00
2017-10-14T06:25:07.782Z,60.20
2017-10-14T06:27:35.306Z,60.10
2017-10-14T06:30:02.811Z,60.30
2017-10-14T06:32:31.089Z,60.50
2017-10-14T06:34:59.357Z,60.60
2017-10-14T06:37:27.642Z,60.80
2017-10-14T06:39:55.913Z,60.80
2017-10-14T06:42:24.207Z,60.90
2017-10-14T06:44:51.738Z,60.90
2017-10-14T06:47:19.244Z,61.10
2017-10-14T06:49:46.759Z,61.10
2017-10-14T06:52:14.264Z,61.30
2017-10-14T06:54:41.792Z,61.40
2017-10-14T06:57:10.062Z,62.00
2017-10-14T06:59:38.347Z,62.10
2017-10-14T07:02:06.627Z,62.30
2017-10-14T07:04:34.205Z,62.30
2017-10-14T07:07:01.766Z,62.40
2017-10-14T07:09:29.279Z,62.40
2017-10-14T07:11:56.779Z,62.40
2017-10-14T07:14:24.293Z,62.40
2017-10-14T07:16:52.773Z,62.40
2017-10-14T07:19:20.278Z,62.40
2017-10-14T07:21:48.699Z,62.40
2017-10-14T07:24:16.263Z,62.50
2017-10-14T07:26:43.768Z,62.60
2017-10-14T07:29:11.278Z,62.70
2017-10-14T07:31:38.786Z,62.60
2017-10-14T07:34:06.498Z,63.00
2017-10-14T07:36:36.359Z,63.30
2017-10-14T07:39:04.011Z,63.30
2017-10-14T07:41:31.563Z,63.50
2017-10-14T07:43:59.854Z,64.00
2017-10-14T07:46:28.122Z,64.50
2017-10-14T07:48:58.371Z,64.90
2017-10-14T07:51:27.826Z,64.90
2017-10-14T07:53:55.390Z,65.10
2017-10-14T07:56:23.884Z,65.10
2017-10-14T07:58:51.493Z,64.60
2017-10-14T08:01:19.015Z,64.40
2017-10-14T08:03:46.520Z,64.50
2017-10-14T08:06:14.030Z,65.00
2017-10-14T08:08:42.379Z,65.50
2017-10-14T08:11:09.905Z,65.40
2017-10-14T08:13:37.406Z,65.60
2017-10-14T08:16:04.939Z,65.70
2017-10-14T08:18:32.455Z,65.90
2017-10-14T08:21:00.747Z,65.80
2017-10-14T08:23:28.251Z,65.80
2017-10-14T08:25:56.011Z,65.60
2017-10-14T08:28:23.511Z,65.30
2017-10-14T08:30:51.878Z,65.00
2017-10-14T08:33:20.160Z,64.90
2017-10-14T08:35:48.462Z,64.90
2017-10-14T08:38:15.979Z,64.80
2017-10-14T08:40:43.494Z,64.80
2017-10-14T08:43:11.867Z,64.90
2017-10-14T08:45:39.395Z,64.90
2017-10-14T08:48:07.671Z,64.70
2017-10-14T08:50:36.504Z,64.80
2017-10-14T08:53:04.032Z,64.70
2017-10-14T08:55:32.563Z,64.80
2017-10-14T08:58:00.066Z,64.70
2017-10-14T09:00:27.579Z,64.60
2017-10-14T09:02:55.145Z,64.90
2017-10-14T09:05:22.696Z,64.50
2017-10-14T09:07:50.219Z,64.50
2017-10-14T09:10:17.739Z,64.70
2017-10-14T09:12:45.288Z,64.70
2017-10-14T09:15:12.804Z,64.80
2017-10-14T09:17:40.327Z,64.50
2017-10-14T09:20:07.832Z,64.20
2017-10-14T09:22:35.365Z,63.70
2017-10-14T09:25:02.899Z,64.20
2017-10-14T09:27:30.424Z,64.40
2017-10-14T09:29:57.953Z,64.30
2017-10-14T09:32:25.484Z,64.40
2017-10-14T09:34:53.236Z,64.20
2017-10-14T09:37:20.767Z,63.80
2017-10-14T09:39:48.270Z,62.80
2017-10-14T09:42:15.790Z,62.80
2017-10-14T09:44:44.405Z,62.80
2017-10-14T09:47:11.922Z,62.70
2017-10-14T09:49:39.423Z,62.70
2017-10-14T09:52:06.934Z,62.80
2017-10-14T09:54:34.443Z,62.50
2017-10-14T09:57:02.192Z,62.70
2017-10-14T09:59:29.714Z,62.00
2017-10-14T10:01:57.220Z,62.20
2017-10-14T10:04:24.737Z,62.30
2017-10-14T10:06:52.247Z,62.30
2017-10-14T10:09:20.557Z,62.30
2017-10-14T10:11:48.074Z,62.20
2017-10-14T10:14:15.591Z,62.30
2017-10-14T10:16:43.862Z,62.20
2017-10-14T10:19:11.387Z,62.10
2017-10-14T10:21:39.666Z,60.70
2017-10-14T10:24:07.955Z,60.50
2017-10-14T10:26:35.514Z,60.60
2017-10-14T10:29:03.039Z,60.40
2017-10-14T10:31:31.025Z,60.00
2017-10-14T10:33:58.556Z,59.80
2017-10-14T10:36:26.084Z,59.40
2017-10-14T10:38:53.619Z,59.00
2017-10-14T10:41:21.132Z,58.60
2017-10-14T10:43:48.683Z,58.20
2017-10-14T10:46:16.192Z,57.80
2017-10-14T10:48:43.741Z,57.70
2017-10-14T10:51:12.009Z,57.80
2017-10-14T10:53:43.679Z,57.30
2017-10-14T10:56:11.947Z,57.80
2017-10-14T10:58:39.479Z,57.80
2017-10-14T11:01:06.989Z,57.70
2017-10-14T11:03:35.458Z,57.50
2017-10-14T11:06:03.748Z,56.80
2017-10-14T11:08:32.028Z,56.80
2017-10-14T11:10:59.566Z,56.90
2017-10-14T11:13:27.851Z,57.30
2017-10-14T11:15:56.161Z,57.00
2017-10-14T11:18:23.678Z,56.80
2017-10-14T11:20:51.999Z,56.30
2017-10-14T11:23:19.520Z,56.20
2017-10-14T11:25:47.828Z,55.90
2017-10-14T11:28:15.363Z,55.80
2017-10-14T11:30:43.667Z,55.40
2017-10-14T11:33:11.174Z,55.30
2017-10-14T11:35:38.694Z,55.30
2017-10-14T11:38:06.203Z,55.30
2017-10-14T11:40:34.495Z,55.20
2017-10-14T11:43:02.768Z,55.10
2017-10-14T11:45:30.303Z,55.00
2017-10-14T11:47:57.814Z,54.80
2017-10-14T11:50:25.343Z,54.80
2017-10-14T11:52:53.620Z,54.50
2017-10-14T11:55:21.911Z,54.30
2017-10-14T11:57:50.182Z,54.20
2017-10-14T12:00:18.491Z,54.30
2017-10-14T12:02:45.994Z,54.20
2017-10-14T12:05:13.518Z,54.20
2017-10-14T12:07:41.843Z,54.10
2017-10-14T12:10:09.354Z,53.90
2017-10-14T12:12:36.888Z,53.70
2017-10-14T12:15:05.339Z,53.70
2017-10-14T12:17:32.867Z,53.20
2017-10-14T12:20:00.371Z,53.20
2017-10-14T12:22:28.663Z,53.30
2017-10-14T12:24:56.167Z,53.20
2017-10-14T12:27:23.691Z,53.30
2017-10-14T12:29:51.188Z,53.20
2017-10-14T12:32:18.715Z,52.80
2017-10-14T12:34:46.231Z,52.60
2017-10-14T12:37:13.747Z,52.30
2017-10-14T12:39:41.242Z,52.00
2017-10-14T12:42:08.799Z,51.70
2017-10-14T12:44:36.316Z,51.40
2017-10-14T12:47:03.839Z,51.20
2017-10-14T12:49:32.128Z,51.00
2017-10-14T12:51:59.658Z,50.90
2017-10-14T12:54:27.172Z,50.80
2017-10-14T12:56:54.702Z,50.70
2017-10-14T12:59:22.971Z,50.50
2017-10-14T13:01:51.259Z,50.40
2017-10-14T13:04:18.783Z,50.30
2017-10-14T13:06:46.326Z,50.50
2017-10-14T13:09:13.827Z,50.40
2017-10-14T13:11:42.111Z,49.90
2017-10-14T13:14:10.397Z,49.60
2017-10-14T13:16:37.923Z,49.40
2017-10-14T13:19:05.448Z,49.40
2017-10-14T13:21:32.972Z,49.20
2017-10-14T13:24:00.503Z,49.20
2017-10-14T13:26:28.023Z,49.20
2017-10-14T13:28:55.547Z,49.40
2017-10-14T13:31:23.836Z,49.40
2017-10-14T13:33:51.372Z,49.40
2017-10-14T13:36:19.659Z,49.90
2017-10-14T13:38:47.195Z,49.80
2017-10-14T13:41:14.707Z,50.10
2017-10-14T13:43:42.233Z,50.20
2017-10-14T13:46:10.524Z,50.30
2017-10-14T13:48:38.045Z,50.30
2017-10-14T13:51:05.569Z,49.80
2017-10-14T13:53:33.120Z,49.80
2017-10-14T13:56:00.631Z,49.60
2017-10-14T13:58:28.923Z,49.50
2017-10-14T14:00:57.191Z,49.30
2017-10-14T14:03:25.484Z,49.30
2017-10-14T14:05:53.003Z,49.30
2017-10-14T14:08:20.533Z,49.40
2017-10-14T14:10:48.045Z,49.40
2017-10-14T14:13:15.581Z,49.20
2017-10-14T14:15:43.090Z,49.20
2017-10-14T14:18:10.610Z,49.20
2017-10-14T14:20:38.133Z,49.00
2017-10-14T14:23:05.655Z,49.70
2017-10-14T14:25:33.956Z,49.10
2017-10-14T14:28:01.467Z,49.10
2017-10-14T14:30:29.769Z,49.20
2017-10-14T14:32:57.288Z,49.10
2017-10-14T14:35:24.822Z,49.10
2017-10-14T14:37:53.097Z,48.80
2017-10-14T14:40:20.625Z,48.70
2017-10-14T14:42:48.136Z,48.40
2017-10-14T14:45:15.656Z,48.20
2017-10-14T14:47:43.173Z,48.00
2017-10-14T14:50:10.716Z,48.60
2017-10-14T14:52:38.220Z,47.90
2017-10-14T14:55:06.502Z,47.40
2017-10-14T14:57:34.030Z,47.40
2017-10-14T15:00:01.547Z,47.30
2017-10-14T15:02:29.052Z,47.70
2017-10-14T15:04:56.588Z,48.40
2017-10-14T15:07:24.082Z,48.40
2017-10-14T15:09:52.366Z,49.60
2017-10-14T15:12:20.631Z,49.10
2017-10-14T15:14:48.913Z,49.30
2017-10-14T15:17:16.439Z,49.20
2017-10-14T15:19:43.998Z,49.40
2017-10-14T15:22:11.499Z,49.50
2017-10-14T15:24:39.763Z,49.70
2017-10-14T15:27:08.052Z,50.00
2017-10-14T15:29:36.403Z,49.80
2017-10-14T15:32:03.921Z,50.10
2017-10-14T15:34:31.419Z,50.20
2017-10-14T15:36:58.967Z,50.30
2017-10-14T15:39:26.468Z,50.50
2017-10-14T15:41:53.999Z,50.70
2017-10-14T15:44:21.500Z,50.80
2017-10-14T15:46:49.023Z,50.80
2017-10-14T15:49:16.532Z,50.90
2017-10-14T15:51:44.068Z,51.10
2017-10-14T15:54:12.339Z,51.30
2017-10-14T15:56:40.627Z,51.30
2017-10-14T15:59:08.130Z,51.30
2017-10-14T16:01:35.654Z,51.50
2017-10-14T16:04:03.185Z,51.60
2017-10-14T16:06:31.475Z,52.10
2017-10-14T16:08:58.991Z,52.00
2017-10-14T16:11:26.504Z,52.20
2017-10-14T16:13:54.015Z,52.30
2017-10-14T16:16:22.003Z,52.40
2017-10-14T16:18:50.278Z,53.00
2017-10-14T16:21:17.776Z,53.00
2017-10-14T16:23:45.309Z,53.20
2017-10-14T16:26:13.572Z,53.50
2017-10-14T16:28:41.083Z,53.50
2017-10-14T16:31:08.578Z,53.60
2017-10-14T16:33:36.090Z,53.70
2017-10-14T16:36:03.587Z,53.90
2017-10-14T16:38:31.102Z,54.00
2017-10-14T16:40:58.610Z,54.20
2017-10-14T16:43:26.138Z,54.30
2017-10-14T16:45:53.634Z,54.50
2017-10-14T16:48:21.143Z,54.60
2017-10-14T16:50:48.647Z,54.80
2017-10-14T16:53:16.166Z,55.10
2017-10-14T16:55:43.669Z,55.20
2017-10-14T16:58:11.187Z,55.20
2017-10-14T17:00:38.695Z,55.40
2017-10-14T17:03:06.211Z,55.50
2017-10-14T17:05:33.705Z,55.60
2017-10-14T17:08:01.224Z,55.80
2017-10-14T17:10:29.492Z,56.10
2017-10-14T17:12:57.023Z,56.10
2017-10-14T17:15:25.290Z,56.70
2017-10-14T17:17:53.570Z,56.90
2017-10-14T17:20:21.847Z,57.00
2017-10-14T17:22:50.151Z,57.10
2017-10-14T17:25:17.650Z,57.60
2017-10-14T17:27:45.147Z,57.00
2017-10-14T17:30:13.434Z,57.10
2017-10-14T17:32:41.708Z,57.40
2017-10-14T17:35:09.228Z,57.40
2017-10-14T17:37:36.734Z,57.50
2017-10-14T17:40:04.251Z,57.60
2017-10-14T17:42:31.767Z,57.80
2017-10-14T17:44:59.296Z,57.90
2017-10-14T17:47:27.577Z,57.90
2017-10-14T17:49:55.110Z,57.80
2017-10-14T17:52:22.627Z,57.90
2017-10-14T17:54:50.898Z,57.90
2017-10-14T17:57:18.423Z,57.90
2017-10-14T17:59:46.703Z,57.70
2017-10-14T18:02:14.987Z,57.80
2017-10-14T18:04:43.254Z,57.90
2017-10-14T18:07:11.533Z,58.40
2017-10-14T18:09:39.799Z,57.80
2017-10-14T18:12:07.334Z,57.70
2017-10-14T18:14:34.835Z,58.50
2017-10-14T18:17:03.099Z,58.70
2017-10-14T18:19:31.384Z,58.50
2017-10-14T18:21:59.651Z,58.20
2017-10-14T18:24:27.937Z,58.20
2017-10-14T18:26:56.216Z,58.40
2017-10-14T18:29:24.545Z,58.70
2017-10-14T18:31:52.047Z,58.80
2017-10-14T18:34:20.362Z,58.60
2017-10-14T18:36:47.869Z,58.50
2017-10-14T18:39:15.376Z,58.60
2017-10-14T18:41:42.919Z,58.90
2017-10-14T18:44:10.428Z,59.10
2017-10-14T18:46:37.951Z,59.20
2017-10-14T18:49:05.450Z,59.10
2017-10-14T18:51:32.976Z,59.20
2017-10-14T18:54:00.487Z,59.20
2017-10-14T18:56:28.023Z,59.20
2017-10-14T18:58:55.527Z,59.10
2017-10-14T19:01:23.027Z,59.30
2017-10-14T19:03:50.551Z,59.30
2017-10-14T19:06:18.063Z,59.00
2017-10-14T19:08:45.583Z,59.00
2017-10-14T19:11:13.084Z,59.00
2017-10-14T19:13:40.619Z,59.00
2017-10-14T19:16:08.127Z,59.10
2017-10-14T19:18:35.630Z,59.20
2017-10-14T19:21:03.146Z,59.30
2017-10-14T19:23:31.427Z,59.70
2017-10-14T19:25:59.715Z,59.70
2017-10-14T19:28:27.231Z,59.70
2017-10-14T19:30:54.762Z,59.60
2017-10-14T19:33:22.266Z,59.60
2017-10-14T19:35:49.786Z,59.70
2017-10-14T19:38:17.296Z,59.80
2017-10-14T19:40:45.702Z,59.80
2017-10-14T19:43:13.223Z,59.70
2017-10-14T19:45:40.727Z,59.70
2017-10-14T19:48:08.255Z,59.70
2017-10-14T19:50:36.526Z,59.70
2017-10-14T19:53:04.811Z,59.90
2017-10-14T19:55:33.082Z,59.90
2017-10-14T20:00:42.192Z,59.90
2017-10-14T20:03:09.735Z,60.10
2017-10-14T20:05:37.244Z,60.10
2017-10-14T20:08:04.767Z,60.00
2017-10-14T20:10:32.296Z,60.00
2017-10-14T20:12:59.815Z,60.10
2017-10-14T20:15:27.342Z,60.00
2017-10-14T20:17:54.870Z,60.00
2017-10-14T20:20:22.416Z,60.10
2017-10-14T20:22:49.918Z,60.00
2017-10-14T20:25:17.435Z,60.00
2017-10-14T20:27:45.735Z,60.10
2017-10-14T20:30:13.251Z,60.10
2017-10-14T20:32:41.558Z,60.50
2017-10-14T20:35:09.076Z,60.10
2017-10-14T20:37:36.594Z,60.10
2017-10-14T20:40:04.111Z,60.30
2017-10-14T20:42:32.411Z,60.20
2017-10-14T20:44:59.923Z,60.10
2017-10-14T20:47:27.434Z,60.00
2017-10-14T20:49:54.977Z,59.90
2017-10-14T20:52:23.247Z,60.00
2017-10-14T20:54:51.550Z,60.00
2017-10-14T20:57:19.055Z,59.90
2017-10-14T20:59:46.576Z,59.80
2017-10-14T21:02:14.903Z,59.90
2017-10-14T21:04:42.440Z,59.90
2017-10-14T21:07:09.947Z,60.00
2017-10-14T21:09:38.218Z,60.10
2017-10-14T21:12:06.506Z,60.90
2017-10-14T21:14:34.040Z,60.00
2017-10-14T21:17:01.555Z,60.10
2017-10-14T21:19:29.066Z,60.50
2017-10-14T21:21:56.595Z,60.10
2017-10-14T21:24:24.103Z,59.90
2017-10-14T21:26:52.794Z,60.00
2017-10-14T21:29:20.306Z,60.00
2017-10-14T21:31:47.811Z,59.90
2017-10-14T21:34:15.351Z,60.00
2017-10-14T21:36:43.614Z,60.10
2017-10-14T21:39:11.145Z,60.00
2017-10-14T21:41:38.646Z,60.00
2017-10-14T21:44:06.931Z,60.10
2017-10-14T21:46:34.443Z,59.90
2017-10-14T21:49:01.978Z,60.10
2017-10-14T21:51:29.499Z,60.10
2017-10-14T21:53:57.767Z,60.00
2017-10-14T21:56:25.306Z,60.00
2017-10-14T21:58:52.810Z,59.90
2017-10-14T22:01:20.351Z,59.90
2017-10-14T22:03:48.622Z,60.00
2017-10-14T22:06:16.192Z,59.90
2017-10-14T22:08:44.475Z,60.10
2017-10-14T22:11:11.991Z,60.00
2017-10-14T22:13:39.523Z,60.10
2017-10-14T22:16:07.031Z,60.00
2017-10-14T22:18:34.562Z,60.00
2017-10-14T22:21:02.087Z,60.00
2017-10-14T22:23:29.611Z,59.80
2017-10-14T22:25:57.129Z,59.80
2017-10-14T22:28:24.689Z,59.50
2017-10-14T22:30:52.186Z,59.90
2017-10-14T22:33:19.695Z,59.80
2017-10-14T22:35:47.995Z,59.70
2017-10-14T22:38:15.502Z,59.70
2017-10-14T22:40:43.027Z,59.60
2017-10-14T22:43:10.534Z,59.70
2017-10-14T22:45:38.058Z,59.70
2017-10-14T22:48:05.585Z,59.60
2017-10-14T22:50:33.102Z,59.60
2017-10-14T22:53:00.619Z,59.70
2017-10-14T22:55:28.177Z,59.70
2017-10-14T22:57:55.674Z,59.70
2017-10-14T23:00:23.960Z,59.90
2017-10-14T23:02:52.230Z,59.90
2017-10-14T23:05:20.530Z,59.90
2017-10-14T23:07:48.046Z,59.80
2017-10-14T23:10:15.707Z,59.80
2017-10-14T23:12:43.220Z,59.90
2017-10-14T23:15:10.741Z,60.00
2017-10-14T23:17:39.006Z,60.00
2017-10-14T23:20:07.319Z,60.00
2017-10-14T23:22:34.821Z,60.00
2017-10-14T23:25:02.398Z,60.00
2017-10-14T23:27:29.920Z,60.00
2017-10-14T23:29:57.434Z,60.10
2017-10-14T23:32:25.706Z,60.10
2017-10-14T23:34:53.983Z,60.10
2017-10-14T23:37:22.292Z,60.10
2017-10-14T23:39:49.805Z,60.10
2017-10-14T23:42:17.342Z,60.10
2017-10-14T23:44:44.842Z,59.70
2017-10-14T23:47:13.122Z,59.90
2017-10-14T23:49:41.395Z,59.80
2017-10-14T23:52:09.710Z,59.90
2017-10-14T23:54:37.206Z,59.70
2017-10-14T23:57:04.727Z,59.80
2017-10-14T23:59:32.230Z,59.80
